McCook, NE

6:13 PM CDT on May 05, 2015 (GMT -0500)
Kelly | | Change Station
CLOSE
Current Station
Airport
Location: Lexington,
Elevation: 2411 ft
Nearby Weather Stations

Elev 2411 ft 40.79 °N, 99.78 °W | Updated 18 minutes ago

Rain
Rain
66 °F
Feels Like 66 °F
N
8
Wind Variable Wind from SSE

Today
High -- | Low -- °F
--% Chance of Precip.
Yesterday
High -- | Low -- °F
Precip. -- in
6:37 AM 8:41 PM
Waning Gibbous, 97% visible
Pressure 29.90 in
Visibility 10.0 miles
Clouds Mostly Cloudy 11000 ft
Dew Point 60 °F
Humidity 81%
Rainfall 0.17 in
Snow Depth Not available.
UV 2 out of 12
Pollen 4.90 out of 12
Air Quality Not available.
Flu Activity Local Activity
METAR KLXN 052255Z AUTO 16007KT 10SM BKN110 19/15 A2990 RMK AO2 T01870153

More Conditions Fewer Conditions

Pressure 29.90 in
Visibility 10.0 miles
Clouds Mostly Cloudy 11000 ft
Dew Point 60 °F
Humidity 81%
Rainfall 0.17 in
Snow Depth Not available.
UV 2 out of 12
Pollen 4.90 out of 12
Air Quality Not available.
Flu Activity Local Activity
METAR KLXN 052255Z AUTO 16007KT 10SM BKN110 19/15 A2990 RMK AO2 T01870153

More Conditions Fewer Conditions

10-Day Weather Forecast

Almanac

Astronomy

May. 05, 2015 Rise Set
Actual Time
Civil Twilight
Nautical Twilight
Astronomical Twilight
Moon
Length of Visible Light
Length of Day
Tomorrow will be .
, % of the Moon is Illuminated

Today's Extremes

State Highs State Lows

Community

WunderPhotos

Upload Photos

1,819,008 photos uploaded!

WunderBlogs® & News

Nearby

Air Quality

  Air Quality AQ Index Pollutant
Not available.

Snow Depth

Station Depth Elevation

Earthquake Activity

City Distance Mag. Time & Date
Minimum magnitude displayed is 2.5.

Coastal Water Temperatures

Place Temperature

Stations

Nearby Weather Stations

Station Location Temp. Windchill Dew Point Humidity Wind Precip. Elev Updated Type